Time;durP1;ratioP1;P1;durP2;ratioP2;P2;SDS_P1;SDS_P2;PMS_P1;PMS_P2;Temp;Humidity;BMP_temperature;BMP_pressure;BME280_temperature;BME280_humidity;BME280_pressure;Samples;Min_cycle;Max_cycle;Signal;HPM_P1;HPM_P2
2022/03/13 00:01:01;;;;;;;42.13;20.00;;;-0.50;74.60;;;;;;2602704;54;20033;31
2022/03/13 00:03:38;;;;;;;42.78;19.35;;;-0.50;74.60;;;;;;2602828;54;20124;31
2022/03/13 00:06:14;;;;;;;;;;;-0.50;74.60;;;;;;2602809;54;20893;31
2022/03/13 00:08:55;;;;;;;41.15;19.60;;;-0.50;74.80;;;;;;2621588;46;19961;31
2022/03/13 00:11:31;;;;;;;46.10;19.75;;;-0.50;74.60;;;;;;2603104;54;20585;31
2022/03/13 00:14:08;;;;;;;45.97;19.98;;;-0.60;74.60;;;;;;2621008;46;20026;31
2022/03/13 00:16:48;;;;;;;42.20;19.75;;;-0.60;74.70;;;;;;2603016;54;20034;31
2022/03/13 00:19:25;;;;;;;42.33;20.07;;;-0.60;74.70;;;;;;2621470;46;20037;31
2022/03/13 00:22:01;;;;;;;;;;;-0.60;74.90;;;;;;2603246;54;20870;31
2022/03/13 00:24:36;;;;;;;44.47;19.88;;;-0.60;75.30;;;;;;2602970;54;19942;31
2022/03/13 00:27:12;;;;;;;38.97;18.63;;;-0.70;75.10;;;;;;2602982;54;20881;31
2022/03/13 00:29:48;;;;;;;40.58;19.50;;;-0.70;75.10;;;;;;2621489;46;20056;31
2022/03/13 00:32:26;;;;;;;39.35;18.77;;;-0.70;75.50;;;;;;2603043;54;20030;31
2022/03/13 00:35:02;;;;;;;36.60;18.40;;;-0.70;75.30;;;;;;2602824;54;20054;31
2022/03/13 00:37:39;;;;;;;40.97;18.30;;;-0.70;75.30;;;;;;2602789;54;20026;31
2022/03/13 00:40:20;;;;;;;36.78;18.08;;;-0.70;75.30;;;;;;2602518;54;20033;31
2022/03/13 00:42:56;;;;;;;32.13;16.75;;;-0.80;75.30;;;;;;2602740;54;20023;31
2022/03/13 00:45:32;;;;;;;38.40;18.70;;;-0.80;75.20;;;;;;2621244;46;20100;31
2022/03/13 00:48:12;;;;;;;35.60;16.65;;;-0.80;75.40;;;;;;2602856;54;20116;31
2022/03/13 00:50:48;;;;;;;39.97;17.55;;;-0.80;75.50;;;;;;2602675;54;20031;31
2022/03/13 00:53:23;;;;;;;39.15;17.13;;;-0.70;75.40;;;;;;2602596;54;20080;31
2022/03/13 00:55:56;;;;;;;38.20;17.80;;;-0.80;75.50;;;;;;2602713;54;20053;31
2022/03/13 00:58:33;;;;;;;34.42;17.83;;;-0.80;75.60;;;;;;2602897;54;20033;31
2022/03/13 01:01:13;;;;;;;36.40;17.38;;;-0.80;75.70;;;;;;2602607;54;20872;31
2022/03/13 01:03:48;;;;;;;35.65;17.08;;;-0.80;75.80;;;;;;2602744;54;20752;31
2022/03/13 01:06:26;;;;;;;29.03;15.43;;;-0.80;76.00;;;;;;2602802;54;20877;31
2022/03/13 01:09:01;;;;;;;33.58;15.98;;;-0.90;75.90;;;;;;2602805;54;20234;31
2022/03/13 01:11:36;;;;;;;34.40;17.20;;;-0.90;75.90;;;;;;2602776;54;20913;31
2022/03/13 01:14:12;;;;;;;29.27;15.35;;;-0.90;76.10;;;;;;2618263;46;20086;31
2022/03/13 01:16:47;;;;;;;31.95;16.45;;;-0.90;76.00;;;;;;2621064;47;20048;31
2022/03/13 01:19:22;;;;;;;29.95;15.10;;;-0.90;76.00;;;;;;2603034;54;20877;31
2022/03/13 01:22:00;;;;;;;29.73;15.33;;;-0.90;75.80;;;;;;2602497;54;20941;31
2022/03/13 01:24:43;;;;;;;30.48;16.00;;;-0.90;76.20;;;;;;2602607;54;20263;31
2022/03/13 01:27:19;;;;;;;36.75;16.38;;;-0.90;76.60;;;;;;2602688;54;20034;31
2022/03/13 01:29:55;;;;;;;40.47;17.50;;;-0.90;76.20;;;;;;2602483;54;20832;31
2022/03/13 01:32:32;;;;;;;38.25;17.00;;;-1.00;76.20;;;;;;2602709;54;20876;31
2022/03/13 01:35:08;;;;;;;34.20;16.17;;;-1.00;76.50;;;;;;2602716;54;20053;31
2022/03/13 01:37:46;;;;;;;39.80;17.53;;;-1.00;76.50;;;;;;2602545;54;20887;31
2022/03/13 01:40:23;;;;;;;38.75;18.00;;;-1.00;76.50;;;;;;2602395;54;20048;31
2022/03/13 01:42:58;;;;;;;35.65;17.40;;;-1.00;76.80;;;;;;2602350;54;20757;31
2022/03/13 01:45:34;;;;;;;33.22;18.05;;;-1.10;76.80;;;;;;2602600;54;20902;31
2022/03/13 01:48:07;;;;;;;33.25;16.00;;;-1.10;76.90;;;;;;2621186;47;20843;31
2022/03/13 01:50:43;;;;;;;35.47;16.87;;;-1.10;77.20;;;;;;2602495;54;20030;31
2022/03/13 01:53:21;;;;;;;35.95;17.42;;;-1.10;77.30;;;;;;2602481;54;20235;31
2022/03/13 01:55:58;;;;;;;41.28;17.88;;;-1.20;77.30;;;;;;2621259;47;20874;31
2022/03/13 01:58:34;;;;;;;39.63;18.93;;;-1.20;77.50;;;;;;2602626;54;20887;31
2022/03/13 02:01:08;;;;;;;41.43;19.03;;;-1.10;77.80;;;;;;2602154;54;20937;31
2022/03/13 02:03:47;;;;;;;42.42;20.13;;;-1.20;78.00;;;;;;2790494;31;20601;31
2022/03/13 02:06:23;;;;;;;47.25;19.40;;;-1.30;78.10;;;;;;2602477;54;20951;31
2022/03/13 02:09:00;;;;;;;;;;;-1.30;78.40;;;;;;2772719;31;20623;31
2022/03/13 02:11:38;;;;;;;40.80;17.42;;;-1.30;79.00;;;;;;2602428;54;20865;31
2022/03/13 02:14:17;;;;;;;39.45;18.63;;;-1.40;79.00;;;;;;2602552;54;20088;31
2022/03/13 02:16:49;;;;;;;45.00;19.00;;;-1.40;79.10;;;;;;2620794;47;22401;31
2022/03/13 02:19:24;;;;;;;41.60;18.50;;;-1.40;79.40;;;;;;2602550;54;20846;31
2022/03/13 02:21:59;;;;;;;;;;;-1.40;79.60;;;;;;2602486;54;20242;31
2022/03/13 02:24:38;;;;;;;43.22;18.80;;;-1.50;80.50;;;;;;2602418;54;20761;31
2022/03/13 02:27:14;;;;;;;39.23;17.80;;;-1.50;80.00;;;;;;2621730;47;20042;31
2022/03/13 02:29:49;;;;;;;38.35;18.45;;;-1.60;80.10;;;;;;2621287;46;20292;31
2022/03/13 02:32:27;;;;;;;39.13;19.08;;;-1.60;80.40;;;;;;2621238;46;20057;31
2022/03/13 02:35:02;;;;;;;38.05;17.50;;;-1.60;80.60;;;;;;2603084;54;20737;31
2022/03/13 02:37:41;;;;;;;35.10;17.80;;;-1.70;80.40;;;;;;2603370;54;20027;31
2022/03/13 02:40:24;;;;;;;38.80;18.80;;;-1.70;80.90;;;;;;2603209;54;20050;31
2022/03/13 02:43:02;;;;;;;40.05;18.42;;;-1.70;81.30;;;;;;2603135;54;20573;31
2022/03/13 02:45:38;;;;;;;36.30;16.83;;;-1.80;80.90;;;;;;2603297;54;20026;31
2022/03/13 02:48:11;;;;;;;42.72;18.25;;;-1.70;81.50;;;;;;2720020;39;21183;31
2022/03/13 02:50:46;;;;;;;42.25;18.55;;;-1.80;81.20;;;;;;2603009;54;20026;31
2022/03/13 02:53:23;;;;;;;34.85;16.55;;;-1.80;81.60;;;;;;2621185;46;20031;31
2022/03/13 02:56:02;;;;;;;35.53;16.50;;;-1.90;81.60;;;;;;2621753;46;20031;31
2022/03/13 02:58:37;;;;;;;34.90;16.20;;;-1.90;81.80;;;;;;2621692;46;20030;31
2022/03/13 03:01:14;;;;;;;37.45;17.45;;;-1.90;82.40;;;;;;2603300;54;20089;31
2022/03/13 03:03:49;;;;;;;39.13;18.20;;;-1.90;82.10;;;;;;2603109;54;20924;31
2022/03/13 03:06:24;;;;;;;31.38;14.10;;;-1.90;82.50;;;;;;2621242;46;20337;31
2022/03/13 03:09:01;;;;;;;34.17;16.02;;;-2.00;82.20;;;;;;2621967;46;20033;31
2022/03/13 03:11:38;;;;;;;32.30;15.65;;;-2.00;82.60;;;;;;2603268;54;20731;31
2022/03/13 03:14:14;;;;;;;33.80;16.60;;;-2.00;82.40;;;;;;2621583;46;20584;31
2022/03/13 03:16:54;;;;;;;35.33;16.35;;;-2.10;82.40;;;;;;2602780;54;20036;31
2022/03/13 03:19:27;;;;;;;34.70;14.65;;;-2.00;82.60;;;;;;2603153;54;22356;31
2022/03/13 03:22:03;;;;;;;35.38;15.68;;;-2.10;82.50;;;;;;2602913;54;20030;31
2022/03/13 03:24:40;;;;;;;41.00;15.93;;;-2.10;82.60;;;;;;2701472;39;20498;31
2022/03/13 03:27:19;;;;;;;25.70;14.27;;;-2.10;82.90;;;;;;2603205;54;20884;31
2022/03/13 03:29:54;;;;;;;33.63;14.35;;;-2.10;82.90;;;;;;2603161;54;20026;31
2022/03/13 03:32:29;;;;;;;28.50;12.30;;;-2.10;82.80;;;;;;2603021;54;20912;31
2022/03/13 03:35:05;;;;;;;25.58;13.40;;;-2.10;82.70;;;;;;2602792;54;20085;31
2022/03/13 03:37:40;;;;;;;27.92;14.82;;;-2.10;82.90;;;;;;2602855;54;20596;31
2022/03/13 03:40:23;;;;;;;26.90;14.00;;;-2.10;83.10;;;;;;2603072;54;20026;31
2022/03/13 03:43:01;;;;;;;31.25;13.98;;;-2.10;83.10;;;;;;2602979;54;20565;31
2022/03/13 03:45:37;;;;;;;31.30;15.00;;;-2.10;83.20;;;;;;2701588;39;21628;31
2022/03/13 03:48:13;;;;;;;31.87;14.50;;;-2.20;83.10;;;;;;2602848;54;20862;31
2022/03/13 03:50:48;;;;;;;30.63;14.38;;;-2.10;83.20;;;;;;2602921;54;20686;31
2022/03/13 03:53:23;;;;;;;31.30;15.05;;;-2.20;83.30;;;;;;2602922;54;20032;31
2022/03/13 03:55:58;;;;;;;26.77;15.98;;;-2.20;83.40;;;;;;2791793;31;22465;31
2022/03/13 03:58:35;;;;;;;31.65;15.10;;;-2.20;83.70;;;;;;2602984;54;20100;31
2022/03/13 04:01:11;;;;;;;32.00;15.73;;;-2.20;83.80;;;;;;2603077;54;20026;31
2022/03/13 04:03:47;;;;;;;27.65;14.77;;;-2.20;84.40;;;;;;2602678;54;20865;31
2022/03/13 04:06:24;;;;;;;29.05;14.85;;;-2.20;84.30;;;;;;2602867;54;20581;31
2022/03/13 04:08:59;;;;;;;32.97;15.48;;;-2.20;84.50;;;;;;2602906;54;20868;31
2022/03/13 04:11:33;;;;;;;34.87;16.97;;;-2.20;84.90;;;;;;2602832;54;20154;31
2022/03/13 04:14:11;;;;;;;32.85;16.42;;;-2.20;85.90;;;;;;2701091;39;20520;31
2022/03/13 04:16:47;;;;;;;30.90;15.30;;;-2.20;85.40;;;;;;2701472;39;21690;31
2022/03/13 04:19:23;;;;;;;31.35;14.48;;;-2.30;85.60;;;;;;2602793;54;20042;31
2022/03/13 04:21:59;;;;;;;31.27;14.98;;;-2.30;85.40;;;;;;2701634;39;21508;31
2022/03/13 04:24:34;;;;;;;35.00;16.48;;;-2.30;85.90;;;;;;2602172;54;20080;31
2022/03/13 04:27:09;;;;;;;30.13;14.93;;;-2.40;86.30;;;;;;2602953;54;20030;31
2022/03/13 04:29:45;;;;;;;35.50;15.38;;;-2.40;86.60;;;;;;2602782;54;22352;31
2022/03/13 04:32:23;;;;;;;38.75;16.00;;;-2.40;86.70;;;;;;2602864;54;20093;31
2022/03/13 04:34:58;;;;;;;36.58;16.13;;;-2.40;86.70;;;;;;2602563;54;20069;31
2022/03/13 04:37:33;;;;;;;32.45;16.05;;;-2.40;86.90;;;;;;2602935;54;20037;31
2022/03/13 04:40:13;;;;;;;28.03;15.13;;;-2.40;86.80;;;;;;2620927;46;20027;31
2022/03/13 04:42:48;;;;;;;34.23;15.70;;;-2.40;86.70;;;;;;2621101;46;20027;31
2022/03/13 04:45:26;;;;;;;27.08;15.52;;;-2.50;87.10;;;;;;2701369;39;21699;31
2022/03/13 04:48:01;;;;;;;27.25;13.50;;;-2.40;87.30;;;;;;2602516;54;20908;31
2022/03/13 04:50:36;;;;;;;29.20;15.18;;;-2.50;87.60;;;;;;2602762;54;20026;31
2022/03/13 04:53:11;;;;;;;28.00;14.85;;;-2.50;87.80;;;;;;2602849;54;20874;31
2022/03/13 04:55:47;;;;;;;32.15;14.90;;;-2.50;87.90;;;;;;2701325;39;21556;31
2022/03/13 04:58:23;;;;;;;;;;;-2.50;88.30;;;;;;2701691;39;20524;31
2022/03/13 05:01:05;;;;;;;31.03;14.13;;;-2.50;88.30;;;;;;2701309;39;20461;31
2022/03/13 05:03:41;;;;;;;31.13;16.13;;;-2.50;88.60;;;;;;2602707;54;20030;31
2022/03/13 05:06:16;;;;;;;28.00;13.45;;;-2.60;88.40;;;;;;2602536;54;20688;31
2022/03/13 05:08:51;;;;;;;33.83;15.40;;;-2.50;88.90;;;;;;2701360;39;21592;31
2022/03/13 05:11:26;;;;;;;32.72;15.70;;;-2.60;89.30;;;;;;2602536;54;20081;31
2022/03/13 05:14:04;;;;;;;29.73;14.50;;;-2.60;89.50;;;;;;2602608;54;20908;31
2022/03/13 05:16:42;;;;;;;30.77;14.25;;;-2.60;89.80;;;;;;2602419;54;20113;31
2022/03/13 05:19:19;;;;;;;28.98;14.75;;;-2.60;89.70;;;;;;2602864;54;20578;31
2022/03/13 05:21:59;;;;;;;40.85;18.67;;;-2.60;89.70;;;;;;2602743;54;21346;31
2022/03/13 05:24:35;;;;;;;;;;;-2.60;89.70;;;;;;2602635;54;20053;31
2022/03/13 05:27:13;;;;;;;37.95;15.82;;;-2.60;90.00;;;;;;2614264;47;20695;31
2022/03/13 05:29:47;;;;;;;181.27;64.50;;;-2.60;90.10;;;;;;2620961;47;20815;31
2022/03/13 05:32:25;;;;;;;198.40;67.78;;;-2.60;90.30;;;;;;2602699;54;20085;31
2022/03/13 05:34:59;;;;;;;366.83;124.53;;;-2.60;90.10;;;;;;2602712;54;22476;31
2022/03/13 05:37:33;;;;;;;334.13;120.07;;;-2.50;90.10;;;;;;2601833;54;20034;31
2022/03/13 05:40:10;;;;;;;69.00;31.55;;;-2.40;94.00;;;;;;2602666;54;20893;31
2022/03/13 05:42:46;;;;;;;51.60;25.70;;;-2.40;91.50;;;;;;2602380;54;20031;31
2022/03/13 05:45:22;;;;;;;36.03;20.10;;;-2.30;91.30;;;;;;2602417;54;20113;31
2022/03/13 05:48:00;;;;;;;50.17;27.17;;;-2.20;91.00;;;;;;2602641;54;20026;31
2022/03/13 05:50:37;;;;;;;26.65;16.33;;;-2.20;90.90;;;;;;2602416;54;20104;31
2022/03/13 05:53:12;;;;;;;31.08;18.13;;;-2.10;90.90;;;;;;2602455;54;20101;31
2022/03/13 05:55:46;;;;;;;28.50;14.45;;;-2.10;90.70;;;;;;2602445;54;20033;31
2022/03/13 05:58:22;;;;;;;30.83;14.37;;;-1.90;90.70;;;;;;2602271;54;20931;31
2022/03/13 06:01:04;;;;;;;30.52;14.98;;;-1.80;90.70;;;;;;2603106;54;20111;31
2022/03/13 06:06:21;;;;;;;27.17;13.40;;;-0.80;90.40;;;;;;2603308;54;20041;31
2022/03/13 06:08:56;;;;;;;31.33;13.83;;;-0.10;89.60;;;;;;2603342;54;20026;31
2022/03/13 06:11:34;;;;;;;27.70;13.25;;;0.50;87.90;;;;;;2701625;39;20705;31
2022/03/13 06:14:11;;;;;;;26.57;14.63;;;1.10;85.70;;;;;;2602418;54;20046;31
2022/03/13 06:16:51;;;;;;;25.67;13.48;;;1.70;83.80;;;;;;2602427;54;21211;31
2022/03/13 06:19:26;;;;;;;27.90;14.05;;;2.20;82.90;;;;;;2603220;54;20092;31
2022/03/13 06:22:04;;;;;;;28.70;14.47;;;2.80;81.80;;;;;;2603234;54;20945;31
2022/03/13 06:24:45;;;;;;;31.50;14.80;;;3.30;80.50;;;;;;2603057;54;20085;31
2022/03/13 06:27:24;;;;;;;28.80;14.00;;;3.90;79.60;;;;;;2603379;54;20030;31
2022/03/13 06:30:09;;;;;;;27.95;13.93;;;4.40;78.40;;;;;;2603277;54;20030;31
2022/03/13 06:32:48;;;;;;;25.02;13.25;;;4.80;76.70;;;;;;2603350;54;20065;31
2022/03/13 06:35:26;;;;;;;26.92;14.95;;;5.30;76.70;;;;;;2621977;46;20030;31
2022/03/13 06:38:05;;;;;;;21.75;12.55;;;5.70;74.00;;;;;;2603019;54;20971;31
2022/03/13 06:40:44;;;;;;;22.30;13.05;;;6.00;73.30;;;;;;2603083;54;20141;31
2022/03/13 06:43:20;;;;;;;23.55;12.65;;;6.30;70.70;;;;;;2602974;54;20053;31
2022/03/13 06:46:02;;;;;;;23.90;13.25;;;6.50;71.10;;;;;;2621601;46;20036;31
2022/03/13 06:48:39;;;;;;;21.55;12.45;;;6.60;69.90;;;;;;2603514;54;22398;31
2022/03/13 06:51:17;;;;;;;26.60;13.67;;;6.70;72.70;;;;;;2603120;54;20802;31
2022/03/13 06:53:59;;;;;;;24.45;13.00;;;6.80;69.60;;;;;;2621348;46;20046;31
2022/03/13 06:56:36;;;;;;;21.95;12.30;;;6.90;67.90;;;;;;2603322;54;20070;31
2022/03/13 07:02:04;;;;;;;25.75;13.20;;;6.70;67.60;;;;;;2602823;54;20144;31
2022/03/13 07:04:42;;;;;;;29.48;15.15;;;6.50;68.10;;;;;;2602804;54;20030;31
2022/03/13 07:07:17;;;;;;;25.70;14.05;;;6.50;68.70;;;;;;2603051;54;20026;31
2022/03/13 07:09:59;;;;;;;;;;;6.50;68.20;;;;;;2621869;46;20038;31
2022/03/13 07:12:36;;;;;;;22.63;13.95;;;6.40;67.40;;;;;;2602888;54;19962;31
2022/03/13 07:15:14;;;;;;;22.58;12.43;;;6.10;67.00;;;;;;2602952;54;20033;31
2022/03/13 07:17:52;;;;;;;22.02;12.50;;;6.10;68.20;;;;;;2602894;54;21813;31
2022/03/13 07:20:27;;;;;;;21.60;12.07;;;6.10;67.30;;;;;;2603114;54;20847;31
2022/03/13 07:23:05;;;;;;;21.65;12.35;;;6.10;67.10;;;;;;2602947;54;20769;31
2022/03/13 07:25:43;;;;;;;20.88;11.68;;;6.20;67.10;;;;;;2602862;54;20141;31
2022/03/13 07:28:20;;;;;;;25.10;12.00;;;6.30;66.60;;;;;;2602863;54;20057;31
2022/03/13 07:30:57;;;;;;;24.05;12.15;;;6.30;66.60;;;;;;2603081;54;20852;31
2022/03/13 07:33:35;;;;;;;;;;;6.50;67.30;;;;;;2603328;54;20854;31
2022/03/13 07:36:12;;;;;;;20.05;12.23;;;6.70;65.80;;;;;;2621322;46;19938;31
2022/03/13 07:38:49;;;;;;;25.55;13.65;;;6.90;65.50;;;;;;2602056;54;20116;31
2022/03/13 07:41:40;;;;;;;21.98;12.55;;;7.00;65.00;;;;;;2602760;54;20033;31
2022/03/13 07:44:18;;;;;;;20.52;12.20;;;6.90;64.70;;;;;;2602779;54;21010;31
2022/03/13 07:46:55;;;;;;;22.73;13.85;;;7.00;64.50;;;;;;2603032;54;20049;31
2022/03/13 07:49:30;;;;;;;21.35;11.85;;;7.00;64.10;;;;;;2602867;54;20806;31
2022/03/13 07:52:07;;;;;;;23.27;12.83;;;7.10;63.70;;;;;;2603107;54;20037;31
2022/03/13 07:54:50;;;;;;;26.17;13.02;;;7.30;64.90;;;;;;2602852;54;20299;31
2022/03/13 07:57:28;;;;;;;22.75;12.10;;;7.60;63.80;;;;;;2620754;46;20022;31
2022/03/13 08:00:07;;;;;;;23.95;13.60;;;7.70;62.30;;;;;;2602873;54;20838;31
2022/03/13 08:02:48;;;;;;;27.00;13.32;;;7.80;63.10;;;;;;2602835;54;20940;31
2022/03/13 08:05:23;;;;;;;18.70;12.60;;;7.80;62.00;;;;;;2621118;46;20049;31
2022/03/13 08:07:58;;;;;;;22.40;13.75;;;7.90;61.50;;;;;;2621162;46;20060;31
2022/03/13 08:10:34;;;;;;;22.40;12.65;;;7.90;61.40;;;;;;2620789;46;20126;31
2022/03/13 08:13:14;;;;;;;22.50;11.32;;;7.90;61.60;;;;;;2615355;46;20038;31
2022/03/13 08:15:51;;;;;;;19.92;11.60;;;8.20;60.60;;;;;;2602742;54;20048;31
2022/03/13 08:18:30;;;;;;;23.55;12.20;;;8.20;60.40;;;;;;2602868;54;20746;31
2022/03/13 08:21:05;;;;;;;21.92;11.57;;;8.40;60.30;;;;;;2602887;54;20157;31
2022/03/13 08:23:42;;;;;;;24.05;13.20;;;8.50;60.20;;;;;;2602534;54;20817;31
2022/03/13 08:26:20;;;;;;;18.80;11.93;;;8.60;60.80;;;;;;2602674;54;20027;31
2022/03/13 08:28:59;;;;;;;20.00;12.43;;;8.70;59.10;;;;;;2602492;54;20022;31
2022/03/13 08:31:38;;;;;;;23.55;13.30;;;8.60;59.50;;;;;;2602491;54;20038;31
2022/03/13 08:34:15;;;;;;;21.80;12.52;;;8.80;59.80;;;;;;2602734;54;20045;31
2022/03/13 08:36:50;;;;;;;18.80;10.75;;;9.00;59.00;;;;;;2602829;54;20843;31
2022/03/13 08:39:27;;;;;;;19.15;11.95;;;9.00;58.20;;;;;;2602679;54;20037;31
2022/03/13 08:42:02;;;;;;;16.30;12.15;;;9.10;57.50;;;;;;2621168;46;20037;31
2022/03/13 08:44:41;;;;;;;18.50;11.90;;;9.30;59.90;;;;;;2602718;54;20905;31
2022/03/13 08:47:19;;;;;;;18.50;12.50;;;9.50;57.30;;;;;;2602588;54;20108;31
2022/03/13 08:49:57;;;;;;;22.52;12.27;;;9.60;57.80;;;;;;2602547;54;20928;31
2022/03/13 08:52:35;;;;;;;19.23;11.97;;;9.80;57.60;;;;;;2612927;46;20644;31
2022/03/13 08:55:13;;;;;;;19.30;11.20;;;10.10;57.30;;;;;;2618807;46;20034;31
2022/03/13 08:57:50;;;;;;;22.33;13.23;;;10.20;56.70;;;;;;2602933;54;20905;31
2022/03/13 09:00:29;;;;;;;21.58;11.68;;;10.30;56.10;;;;;;2602176;54;20037;31
2022/03/13 09:03:05;;;;;;;18.10;12.15;;;10.50;55.80;;;;;;2602487;54;20862;31
2022/03/13 09:05:41;;;;;;;20.83;12.88;;;10.50;55.80;;;;;;2602334;54;20173;31
2022/03/13 09:08:17;;;;;;;23.55;12.73;;;10.50;54.80;;;;;;2602462;54;20068;31
2022/03/13 09:10:54;;;;;;;28.63;13.87;;;10.60;54.30;;;;;;2621030;46;20033;31
2022/03/13 09:13:30;;;;;;;21.58;14.10;;;10.70;53.80;;;;;;2602353;54;20031;31
2022/03/13 09:16:12;;;;;;;24.75;13.65;;;10.80;53.40;;;;;;2700839;39;21582;31
2022/03/13 09:18:48;;;;;;;23.90;12.90;;;10.80;51.30;;;;;;2620853;46;20033;31
2022/03/13 09:21:23;;;;;;;23.65;14.60;;;10.70;50.70;;;;;;2602361;54;20027;31
2022/03/13 09:24:00;;;;;;;20.05;14.40;;;10.70;51.30;;;;;;2602570;54;20748;31
2022/03/13 09:26:35;;;;;;;21.08;14.60;;;10.70;51.30;;;;;;2602401;54;20022;31
2022/03/13 09:29:15;;;;;;;19.73;12.65;;;10.70;51.50;;;;;;2620911;47;20030;31
2022/03/13 09:32:09;;;;;;;24.35;13.82;;;10.80;52.00;;;;;;2602016;54;20876;31
2022/03/13 09:34:48;;;;;;;20.13;12.53;;;11.00;51.40;;;;;;2602608;54;20848;31
2022/03/13 09:37:23;;;;;;;20.27;11.57;;;11.00;51.40;;;;;;2603288;54;20947;31
2022/03/13 09:40:20;;;;;;;21.08;12.82;;;11.10;51.50;;;;;;2621683;46;20826;31
2022/03/13 09:42:56;;;;;;;24.02;13.48;;;11.10;50.90;;;;;;2621456;46;20045;31
2022/03/13 09:45:33;;;;;;;17.80;11.43;;;11.30;51.80;;;;;;2603050;54;20049;31
2022/03/13 09:48:15;;;;;;;16.98;11.15;;;11.30;50.50;;;;;;2602301;54;20140;31
2022/03/13 09:50:50;;;;;;;13.45;8.98;;;11.60;51.80;;;;;;2602243;54;20026;31
2022/03/13 09:53:29;;;;;;;16.92;10.23;;;11.60;50.50;;;;;;2603272;54;20912;31
2022/03/13 09:56:08;;;;;;;17.93;8.47;;;11.60;50.20;;;;;;2603059;54;20026;31
2022/03/13 09:58:48;;;;;;;14.73;7.95;;;11.60;50.00;;;;;;2603067;54;21106;31
2022/03/13 10:01:25;;;;;;;12.15;8.02;;;11.80;50.30;;;;;;2603091;54;20902;31
2022/03/13 10:04:04;;;;;;;27.48;9.18;;;11.80;49.60;;;;;;2602905;54;20990;31
2022/03/13 10:07:03;;;;;;;13.45;7.90;;;11.70;49.40;;;;;;2602939;54;20850;31
2022/03/13 10:09:38;;;;;;;12.10;8.02;;;11.60;49.20;;;;;;2621400;46;20126;31
2022/03/13 10:12:16;;;;;;;14.05;8.52;;;11.50;49.60;;;;;;2602795;54;20049;31
2022/03/13 10:14:51;;;;;;;15.45;8.05;;;11.50;49.60;;;;;;2603182;54;20850;31
2022/03/13 10:17:29;;;;;;;13.82;8.07;;;11.70;49.90;;;;;;2602770;54;20053;31
2022/03/13 10:20:19;;;;;;;13.57;8.83;;;11.90;49.70;;;;;;2602295;54;20026;31
2022/03/13 10:23:00;;;;;;;13.98;8.32;;;11.90;48.80;;;;;;2602906;54;20266;31
2022/03/13 10:25:40;;;;;;;14.77;8.13;;;11.90;49.10;;;;;;2603075;54;20030;31
2022/03/13 10:28:16;;;;;;;12.23;8.60;;;11.90;48.60;;;;;;2603217;54;20031;31
2022/03/13 10:31:07;;;;;;;13.30;8.15;;;11.80;49.10;;;;;;2603155;54;21211;31
2022/03/13 10:34:01;;;;;;;12.48;8.10;;;11.80;48.50;;;;;;2602879;54;20057;31
2022/03/13 10:36:44;;;;;;;13.82;8.25;;;11.80;48.70;;;;;;2603117;54;21014;31
2022/03/13 10:39:21;;;;;;;14.05;8.55;;;11.90;49.10;;;;;;2621383;46;20034;31
2022/03/13 10:41:58;;;;;;;12.75;7.80;;;11.90;49.60;;;;;;2603178;54;20830;31
2022/03/13 10:44:38;;;;;;;14.57;8.27;;;12.20;49.80;;;;;;2602133;54;20880;31
2022/03/13 10:47:14;;;;;;;16.75;9.23;;;12.20;49.10;;;;;;2601749;54;20965;31
2022/03/13 10:49:49;;;;;;;15.60;7.30;;;12.20;49.20;;;;;;2602901;54;20026;31
2022/03/13 10:52:34;;;;;;;11.87;7.03;;;12.40;49.80;;;;;;2602415;54;20890;31
2022/03/13 10:55:24;;;;;;;11.65;7.57;;;12.40;48.50;;;;;;2602970;54;21078;31
2022/03/13 10:58:00;;;;;;;13.53;7.63;;;12.40;47.90;;;;;;2603109;54;20072;31
2022/03/13 11:00:39;;;;;;;10.98;7.15;;;12.30;48.30;;;;;;2602844;54;21085;31
2022/03/13 11:03:17;;;;;;;14.63;7.05;;;12.30;48.10;;;;;;2621086;46;20955;31
2022/03/13 11:05:51;;;;;;;12.02;7.65;;;12.20;47.90;;;;;;2602355;54;21852;31
2022/03/13 11:08:37;;;;;;;11.75;7.25;;;12.30;47.70;;;;;;2621073;46;20117;31
2022/03/13 11:11:15;;;;;;;12.87;7.63;;;12.20;47.50;;;;;;2621325;46;20881;31
2022/03/13 11:13:52;;;;;;;11.63;7.03;;;12.10;47.90;;;;;;2602784;54;20588;31
2022/03/13 11:16:30;;;;;;;13.07;6.93;;;12.10;48.00;;;;;;2602621;54;20073;31
2022/03/13 11:19:10;;;;;;;14.50;6.57;;;12.10;48.20;;;;;;2621422;46;20026;31
2022/03/13 11:21:47;;;;;;;11.52;6.82;;;12.10;47.90;;;;;;2602978;54;20885;31
2022/03/13 11:24:41;;;;;;;11.70;6.47;;;12.10;47.70;;;;;;2621806;46;20865;31
2022/03/13 11:27:21;;;;;;;12.50;6.25;;;12.10;47.10;;;;;;2602750;54;20109;31
2022/03/13 11:29:55;;;;;;;11.10;6.10;;;12.00;46.30;;;;;;2602885;54;21841;31
2022/03/13 11:32:40;;;;;;;10.50;5.85;;;12.00;46.70;;;;;;2621006;46;20022;31
2022/03/13 11:37:54;;;;;;;10.23;5.97;;;12.00;46.90;;;;;;2603174;54;20882;31
2022/03/13 11:40:36;;;;;;;10.93;5.25;;;12.00;46.30;;;;;;2602984;54;20052;31
2022/03/13 11:43:13;;;;;;;9.13;5.43;;;12.00;45.80;;;;;;2602807;54;20976;31
2022/03/13 11:45:55;;;;;;;9.47;5.90;;;12.00;45.20;;;;;;2602303;54;20683;31
2022/03/13 11:48:40;;;;;;;9.90;6.13;;;11.90;46.10;;;;;;2621143;46;20035;31
2022/03/13 11:51:32;;;;;;;14.20;8.37;;;12.00;45.60;;;;;;2602924;54;20026;31
2022/03/13 11:54:07;;;;;;;7.80;4.65;;;12.00;45.40;;;;;;2602663;54;20093;31
2022/03/13 11:56:52;;;;;;;8.65;4.63;;;12.00;43.80;;;;;;2602697;54;20872;31
2022/03/13 11:59:26;;;;;;;13.60;6.45;;;11.90;43.80;;;;;;2602700;54;20872;31
2022/03/13 12:02:03;;;;;;;9.55;5.60;;;11.90;43.80;;;;;;2602640;54;20895;31
2022/03/13 12:04:40;;;;;;;9.88;5.72;;;11.80;45.20;;;;;;2602565;54;20923;31
2022/03/13 12:07:16;;;;;;;8.10;5.32;;;11.90;45.20;;;;;;2621024;46;20042;31
2022/03/13 12:09:54;;;;;;;7.25;4.50;;;11.90;43.70;;;;;;2602983;54;20053;31
2022/03/13 12:12:33;;;;;;;7.40;4.80;;;11.80;42.60;;;;;;2614887;46;20934;31
2022/03/13 12:15:12;;;;;;;8.38;4.35;;;11.80;43.90;;;;;;2602591;54;20090;31
2022/03/13 12:17:51;;;;;;;8.75;4.55;;;11.70;41.40;;;;;;2602470;54;20731;31
2022/03/13 12:23:40;;;;;;;7.75;4.93;;;11.70;42.10;;;;;;2602550;54;20896;31
2022/03/13 12:38:34;;;;;;;10.18;5.65;;;11.50;43.40;;;;;;2601526;54;20019;31
2022/03/13 12:41:17;;;;;;;9.40;6.00;;;11.50;44.20;;;;;;2602903;54;20938;31
2022/03/13 12:46:52;;;;;;;10.60;6.40;;;11.50;44.60;;;;;;2601731;54;20865;31
2022/03/13 12:49:31;;;;;;;12.30;7.18;;;11.50;44.60;;;;;;2621302;46;20788;31
2022/03/13 12:52:16;;;;;;;11.75;6.85;;;11.50;45.70;;;;;;2602538;54;20876;31
2022/03/13 12:55:02;;;;;;;12.25;6.70;;;11.60;45.90;;;;;;2602627;54;20034;31
2022/03/13 12:57:38;;;;;;;10.02;6.43;;;11.60;45.40;;;;;;2602525;54;20873;31
2022/03/13 13:00:17;;;;;;;10.50;6.93;;;11.60;45.80;;;;;;2621045;46;20034;31
2022/03/13 13:03:05;;;;;;;12.35;6.80;;;11.70;46.20;;;;;;2602598;54;20897;31
2022/03/13 13:05:41;;;;;;;10.52;6.82;;;11.70;46.50;;;;;;2602317;54;20037;31
2022/03/13 13:08:20;;;;;;;15.93;8.40;;;11.80;46.50;;;;;;2602348;54;20033;31
2022/03/13 13:10:55;;;;;;;12.13;8.30;;;11.90;46.70;;;;;;2602518;54;20031;31
2022/03/13 13:13:35;;;;;;;16.20;10.00;;;11.90;47.20;;;;;;2602007;54;20031;31
2022/03/13 13:16:10;;;;;;;13.15;8.02;;;11.90;46.90;;;;;;2602319;54;20057;31
2022/03/13 13:18:47;;;;;;;15.95;8.45;;;11.90;47.00;;;;;;2602484;54;20027;31
2022/03/13 13:21:37;;;;;;;14.23;8.85;;;12.00;47.10;;;;;;2602482;54;20022;31
2022/03/13 13:24:23;;;;;;;14.75;8.50;;;12.00;46.80;;;;;;2620889;47;20030;31
2022/03/13 13:27:01;;;;;;;;;;;12.00;46.90;;;;;;2602736;54;20036;31
2022/03/13 13:29:42;;;;;;;14.75;9.18;;;12.00;46.80;;;;;;2612740;47;19935;31
2022/03/13 13:32:24;;;;;;;17.90;9.50;;;12.00;47.50;;;;;;2601625;54;20041;31
2022/03/13 13:35:10;;;;;;;26.35;10.15;;;12.00;48.20;;;;;;2602333;54;20168;31
2022/03/13 13:37:58;;;;;;;14.27;10.20;;;12.00;47.60;;;;;;2602642;54;20890;31
2022/03/13 13:40:34;;;;;;;13.60;9.18;;;12.00;47.30;;;;;;2602330;54;20381;31
2022/03/13 13:43:13;;;;;;;15.77;9.85;;;12.00;47.60;;;;;;2602460;54;20033;31
2022/03/13 13:45:51;;;;;;;15.25;9.70;;;12.00;47.40;;;;;;2621069;47;20038;31
2022/03/13 13:48:31;;;;;;;16.25;10.10;;;12.10;47.00;;;;;;2602462;54;20910;31
2022/03/13 13:51:21;;;;;;;17.75;10.60;;;12.10;47.10;;;;;;2621110;47;20022;31
2022/03/13 13:54:03;;;;;;;19.58;10.20;;;12.10;47.00;;;;;;2602398;54;20037;31
2022/03/13 13:56:42;;;;;;;15.65;8.70;;;12.10;46.40;;;;;;2601717;54;20858;31
2022/03/13 13:59:20;;;;;;;17.50;9.85;;;12.10;45.80;;;;;;2602406;54;21157;31
2022/03/13 14:02:15;;;;;;;15.95;10.68;;;12.10;47.20;;;;;;2602325;54;20029;31
2022/03/13 14:04:55;;;;;;;19.60;12.15;;;12.20;47.50;;;;;;2602523;54;20881;31
2022/03/13 14:07:31;;;;;;;17.33;12.07;;;12.20;47.30;;;;;;2620663;47;20036;31